sensor_id;sensor_type;location;lat;lon;timestamp;temperature;humidity
40732;DHT22;26420;52.256;9.096;2024-03-02T00:02:46;8.10;99.90
40732;DHT22;26420;52.256;9.096;2024-03-02T00:07:55;8.10;99.90
40732;DHT22;26420;52.256;9.096;2024-03-02T00:12:58;8.10;99.90
40732;DHT22;26420;52.256;9.096;2024-03-02T00:18:01;8.10;99.90
40732;DHT22;26420;52.256;9.096;2024-03-02T00:23:07;8.00;99.90
40732;DHT22;26420;52.256;9.096;2024-03-02T00:28:20;8.00;99.90
40732;DHT22;26420;52.256;9.096;2024-03-02T00:33:23;8.00;99.90
40732;DHT22;26420;52.256;9.096;2024-03-02T00:38:28;7.80;99.90
40732;DHT22;26420;52.256;9.096;2024-03-02T00:43:43;7.80;99.90
40732;DHT22;26420;52.256;9.096;2024-03-02T00:48:57;7.80;99.90
40732;DHT22;26420;52.256;9.096;2024-03-02T00:54:01;7.70;99.90
40732;DHT22;26420;52.256;9.096;2024-03-02T00:59:05;7.70;99.90
40732;DHT22;26420;52.256;9.096;2024-03-02T01:04:07;7.70;99.90
40732;DHT22;26420;52.256;9.096;2024-03-02T01:09:09;7.60;99.90
40732;DHT22;26420;52.256;9.096;2024-03-02T01:14:10;7.50;99.90
40732;DHT22;26420;52.256;9.096;2024-03-02T01:19:12;7.40;99.90
40732;DHT22;26420;52.256;9.096;2024-03-02T01:24:14;7.50;99.90
40732;DHT22;26420;52.256;9.096;2024-03-02T01:29:16;7.50;99.90
40732;DHT22;26420;52.256;9.096;2024-03-02T01:34:18;7.50;99.90
40732;DHT22;26420;52.256;9.096;2024-03-02T01:39:19;7.50;99.90
40732;DHT22;26420;52.256;9.096;2024-03-02T01:44:21;7.50;99.90
40732;DHT22;26420;52.256;9.096;2024-03-02T01:49:23;7.50;99.90
40732;DHT22;26420;52.256;9.096;2024-03-02T01:54:25;7.60;99.90
40732;DHT22;26420;52.256;9.096;2024-03-02T01:59:27;7.60;99.90
40732;DHT22;26420;52.256;9.096;2024-03-02T02:04:28;7.50;99.90
40732;DHT22;26420;52.256;9.096;2024-03-02T02:09:30;7.60;99.90
40732;DHT22;26420;52.256;9.096;2024-03-02T02:14:32;7.60;99.90
40732;DHT22;26420;52.256;9.096;2024-03-02T02:19:34;7.70;99.90
40732;DHT22;26420;52.256;9.096;2024-03-02T02:24:36;7.60;99.90
40732;DHT22;26420;52.256;9.096;2024-03-02T02:29:41;7.60;99.90
40732;DHT22;26420;52.256;9.096;2024-03-02T02:34:44;7.60;99.90
40732;DHT22;26420;52.256;9.096;2024-03-02T02:39:46;7.60;99.90
40732;DHT22;26420;52.256;9.096;2024-03-02T02:44:48;7.50;99.90
40732;DHT22;26420;52.256;9.096;2024-03-02T02:49:49;7.50;99.90
40732;DHT22;26420;52.256;9.096;2024-03-02T02:54:51;7.40;99.90
40732;DHT22;26420;52.256;9.096;2024-03-02T02:59:54;7.20;99.90
40732;DHT22;26420;52.256;9.096;2024-03-02T03:04:55;7.20;99.90
40732;DHT22;26420;52.256;9.096;2024-03-02T03:09:58;7.30;99.90
40732;DHT22;26420;52.256;9.096;2024-03-02T03:15:00;7.40;99.90
40732;DHT22;26420;52.256;9.096;2024-03-02T03:20:03;7.30;99.90
40732;DHT22;26420;52.256;9.096;2024-03-02T03:25:06;7.30;99.90
40732;DHT22;26420;52.256;9.096;2024-03-02T03:30:10;7.30;99.90
40732;DHT22;26420;52.256;9.096;2024-03-02T03:35:12;7.30;99.90
40732;DHT22;26420;52.256;9.096;2024-03-02T03:40:16;7.30;99.90
40732;DHT22;26420;52.256;9.096;2024-03-02T03:45:19;7.30;99.90
40732;DHT22;26420;52.256;9.096;2024-03-02T03:50:21;7.20;99.90
40732;DHT22;26420;52.256;9.096;2024-03-02T03:55:23;7.20;99.90
40732;DHT22;26420;52.256;9.096;2024-03-02T04:00:25;7.20;99.90
40732;DHT22;26420;52.256;9.096;2024-03-02T04:05:27;7.20;99.90
40732;DHT22;26420;52.256;9.096;2024-03-02T04:10:29;7.30;99.90
40732;DHT22;26420;52.256;9.096;2024-03-02T04:15:31;7.20;99.90
40732;DHT22;26420;52.256;9.096;2024-03-02T04:20:33;7.20;99.90
40732;DHT22;26420;52.256;9.096;2024-03-02T04:25:35;7.30;99.90
40732;DHT22;26420;52.256;9.096;2024-03-02T04:30:37;7.30;99.90
40732;DHT22;26420;52.256;9.096;2024-03-02T04:35:39;7.30;99.90
40732;DHT22;26420;52.256;9.096;2024-03-02T04:40:41;7.30;99.90
40732;DHT22;26420;52.256;9.096;2024-03-02T04:45:42;7.30;99.90
40732;DHT22;26420;52.256;9.096;2024-03-02T04:50:44;7.40;99.90
40732;DHT22;26420;52.256;9.096;2024-03-02T04:55:46;7.40;99.90
40732;DHT22;26420;52.256;9.096;2024-03-02T05:01:14;7.40;99.90
40732;DHT22;26420;52.256;9.096;2024-03-02T05:06:15;7.40;99.90
40732;DHT22;26420;52.256;9.096;2024-03-02T05:11:17;7.30;99.90
40732;DHT22;26420;52.256;9.096;2024-03-02T05:16:48;7.30;99.90
40732;DHT22;26420;52.256;9.096;2024-03-02T05:21:50;7.30;99.90
40732;DHT22;26420;52.256;9.096;2024-03-02T05:26:53;7.30;99.90
40732;DHT22;26420;52.256;9.096;2024-03-02T05:31:55;7.30;99.90
40732;DHT22;26420;52.256;9.096;2024-03-02T05:36:57;7.30;99.90
40732;DHT22;26420;52.256;9.096;2024-03-02T05:41:59;7.30;99.90
40732;DHT22;26420;52.256;9.096;2024-03-02T05:47:01;7.30;99.90
40732;DHT22;26420;52.256;9.096;2024-03-02T05:52:02;7.30;99.90
40732;DHT22;26420;52.256;9.096;2024-03-02T05:57:05;7.30;99.90
40732;DHT22;26420;52.256;9.096;2024-03-02T06:02:29;7.30;99.90
40732;DHT22;26420;52.256;9.096;2024-03-02T06:07:31;7.30;99.90
40732;DHT22;26420;52.256;9.096;2024-03-02T06:12:33;7.30;99.90
40732;DHT22;26420;52.256;9.096;2024-03-02T06:17:37;7.20;99.90
40732;DHT22;26420;52.256;9.096;2024-03-02T06:22:39;7.20;99.90
40732;DHT22;26420;52.256;9.096;2024-03-02T06:27:41;7.20;99.90
40732;DHT22;26420;52.256;9.096;2024-03-02T06:32:42;7.30;99.90
40732;DHT22;26420;52.256;9.096;2024-03-02T06:37:44;7.30;99.90
40732;DHT22;26420;52.256;9.096;2024-03-02T06:42:46;7.40;99.90
40732;DHT22;26420;52.256;9.096;2024-03-02T06:47:48;7.40;99.90
40732;DHT22;26420;52.256;9.096;2024-03-02T06:52:49;7.40;99.90
40732;DHT22;26420;52.256;9.096;2024-03-02T06:57:51;7.40;99.90
40732;DHT22;26420;52.256;9.096;2024-03-02T07:02:53;7.60;99.90
40732;DHT22;26420;52.256;9.096;2024-03-02T07:07:55;7.70;99.90
40732;DHT22;26420;52.256;9.096;2024-03-02T07:12:57;7.90;99.90
40732;DHT22;26420;52.256;9.096;2024-03-02T07:17:59;7.90;99.90
40732;DHT22;26420;52.256;9.096;2024-03-02T07:23:01;8.10;99.90
40732;DHT22;26420;52.256;9.096;2024-03-02T07:28:03;8.40;99.90
40732;DHT22;26420;52.256;9.096;2024-03-02T07:33:06;8.50;99.90
40732;DHT22;26420;52.256;9.096;2024-03-02T07:38:08;8.60;99.90
40732;DHT22;26420;52.256;9.096;2024-03-02T07:43:11;8.50;99.90
40732;DHT22;26420;52.256;9.096;2024-03-02T07:48:13;8.60;99.90
40732;DHT22;26420;52.256;9.096;2024-03-02T07:53:15;8.60;99.90
40732;DHT22;26420;52.256;9.096;2024-03-02T07:58:18;8.70;99.90
40732;DHT22;26420;52.256;9.096;2024-03-02T08:03:21;8.70;99.90
40732;DHT22;26420;52.256;9.096;2024-03-02T08:08:23;8.60;99.90
40732;DHT22;26420;52.256;9.096;2024-03-02T08:13:25;8.50;99.90
40732;DHT22;26420;52.256;9.096;2024-03-02T08:18:26;8.60;99.90
40732;DHT22;26420;52.256;9.096;2024-03-02T08:23:28;8.60;99.90
40732;DHT22;26420;52.256;9.096;2024-03-02T08:28:30;8.60;99.90
40732;DHT22;26420;52.256;9.096;2024-03-02T08:33:35;8.60;99.90
40732;DHT22;26420;52.256;9.096;2024-03-02T08:38:39;8.60;99.90
40732;DHT22;26420;52.256;9.096;2024-03-02T08:43:42;8.60;99.90
40732;DHT22;26420;52.256;9.096;2024-03-02T08:48:44;8.70;99.90
40732;DHT22;26420;52.256;9.096;2024-03-02T08:53:46;8.80;99.90
40732;DHT22;26420;52.256;9.096;2024-03-02T08:58:48;9.10;99.90
40732;DHT22;26420;52.256;9.096;2024-03-02T09:03:49;9.30;99.90
40732;DHT22;26420;52.256;9.096;2024-03-02T09:08:51;9.40;99.90
40732;DHT22;26420;52.256;9.096;2024-03-02T09:13:53;9.90;99.90
40732;DHT22;26420;52.256;9.096;2024-03-02T09:18:56;10.30;99.90
40732;DHT22;26420;52.256;9.096;2024-03-02T09:23:58;10.50;99.90
40732;DHT22;26420;52.256;9.096;2024-03-02T09:29:00;10.70;99.90
40732;DHT22;26420;52.256;9.096;2024-03-02T09:34:02;10.70;99.90
40732;DHT22;26420;52.256;9.096;2024-03-02T09:39:03;10.60;99.90
40732;DHT22;26420;52.256;9.096;2024-03-02T09:44:06;10.50;99.90
40732;DHT22;26420;52.256;9.096;2024-03-02T09:49:08;10.70;99.90
40732;DHT22;26420;52.256;9.096;2024-03-02T09:54:09;10.80;99.90
40732;DHT22;26420;52.256;9.096;2024-03-02T09:59:22;10.80;99.90
40732;DHT22;26420;52.256;9.096;2024-03-02T10:04:28;11.10;99.90
40732;DHT22;26420;52.256;9.096;2024-03-02T10:09:30;11.60;99.90
40732;DHT22;26420;52.256;9.096;2024-03-02T10:14:32;11.80;99.90
40732;DHT22;26420;52.256;9.096;2024-03-02T10:19:34;12.00;99.90
40732;DHT22;26420;52.256;9.096;2024-03-02T10:24:40;12.20;99.90
40732;DHT22;26420;52.256;9.096;2024-03-02T10:29:46;12.70;99.90
40732;DHT22;26420;52.256;9.096;2024-03-02T10:34:48;12.90;99.90
40732;DHT22;26420;52.256;9.096;2024-03-02T10:39:52;13.20;99.90
40732;DHT22;26420;52.256;9.096;2024-03-02T10:44:54;13.40;99.90
40732;DHT22;26420;52.256;9.096;2024-03-02T10:49:59;13.30;99.90
40732;DHT22;26420;52.256;9.096;2024-03-02T10:55:00;13.40;99.90
40732;DHT22;26420;52.256;9.096;2024-03-02T11:00:03;13.50;99.90
40732;DHT22;26420;52.256;9.096;2024-03-02T11:05:10;13.50;99.90
40732;DHT22;26420;52.256;9.096;2024-03-02T11:10:12;13.80;99.90
40732;DHT22;26420;52.256;9.096;2024-03-02T11:15:18;14.10;99.90
40732;DHT22;26420;52.256;9.096;2024-03-02T11:20:21;15.00;99.90
40732;DHT22;26420;52.256;9.096;2024-03-02T11:25:25;15.10;99.90
40732;DHT22;26420;52.256;9.096;2024-03-02T11:35:37;15.90;99.90
40732;DHT22;26420;52.256;9.096;2024-03-02T11:40:40;16.30;99.90
